sensor_id;sensor_type;location;lat;lon;timestamp;P1;durP1;ratioP1;P2;durP2;ratioP2
21330;SDS011;10824;51.632;4.950;2024-02-21T00:00:34;3.70;;;1.80;;
21330;SDS011;10824;51.632;4.950;2024-02-21T00:03:01;5.10;;;2.83;;
21330;SDS011;10824;51.632;4.950;2024-02-21T00:05:30;4.30;;;1.17;;
21330;SDS011;10824;51.632;4.950;2024-02-21T00:08:01;7.80;;;1.98;;
21330;SDS011;10824;51.632;4.950;2024-02-21T00:10:30;3.13;;;1.60;;
21330;SDS011;10824;51.632;4.950;2024-02-21T00:12:59;19.00;;;3.17;;
21330;SDS011;10824;51.632;4.950;2024-02-21T00:15:28;3.42;;;1.58;;
21330;SDS011;10824;51.632;4.950;2024-02-21T00:17:55;5.78;;;3.35;;
21330;SDS011;10824;51.632;4.950;2024-02-21T00:20:24;3.70;;;1.25;;
21330;SDS011;10824;51.632;4.950;2024-02-21T00:22:52;7.90;;;2.53;;
21330;SDS011;10824;51.632;4.950;2024-02-21T00:25:20;2.63;;;1.27;;
21330;SDS011;10824;51.632;4.950;2024-02-21T00:27:47;5.30;;;1.75;;
21330;SDS011;10824;51.632;4.950;2024-02-21T00:30:14;3.22;;;1.38;;
21330;SDS011;10824;51.632;4.950;2024-02-21T00:32:41;7.13;;;1.65;;
21330;SDS011;10824;51.632;4.950;2024-02-21T00:35:08;2.70;;;1.60;;
21330;SDS011;10824;51.632;4.950;2024-02-21T00:37:35;4.22;;;1.63;;
21330;SDS011;10824;51.632;4.950;2024-02-21T00:40:02;4.70;;;2.42;;
21330;SDS011;10824;51.632;4.950;2024-02-21T00:42:30;4.32;;;2.47;;
21330;SDS011;10824;51.632;4.950;2024-02-21T00:45:00;5.45;;;1.50;;
21330;SDS011;10824;51.632;4.950;2024-02-21T00:47:27;5.80;;;1.88;;
21330;SDS011;10824;51.632;4.950;2024-02-21T00:49:54;4.32;;;1.77;;
21330;SDS011;10824;51.632;4.950;2024-02-21T00:52:22;3.67;;;1.83;;
21330;SDS011;10824;51.632;4.950;2024-02-21T00:54:49;3.55;;;1.60;;
21330;SDS011;10824;51.632;4.950;2024-02-21T00:57:20;6.35;;;2.40;;
21330;SDS011;10824;51.632;4.950;2024-02-21T00:59:47;12.70;;;2.92;;
21330;SDS011;10824;51.632;4.950;2024-02-21T01:02:14;2.40;;;1.70;;
21330;SDS011;10824;51.632;4.950;2024-02-21T01:04:42;11.23;;;2.13;;
21330;SDS011;10824;51.632;4.950;2024-02-21T01:07:09;4.65;;;2.28;;
21330;SDS011;10824;51.632;4.950;2024-02-21T01:09:36;7.32;;;2.60;;
21330;SDS011;10824;51.632;4.950;2024-02-21T01:12:04;7.00;;;2.13;;
21330;SDS011;10824;51.632;4.950;2024-02-21T01:14:31;5.05;;;2.20;;
21330;SDS011;10824;51.632;4.950;2024-02-21T01:16:58;4.25;;;2.03;;
21330;SDS011;10824;51.632;4.950;2024-02-21T01:19:25;6.72;;;1.95;;
21330;SDS011;10824;51.632;4.950;2024-02-21T01:21:53;3.92;;;1.88;;
21330;SDS011;10824;51.632;4.950;2024-02-21T01:24:20;2.17;;;1.83;;
21330;SDS011;10824;51.632;4.950;2024-02-21T01:26:48;8.20;;;3.30;;
21330;SDS011;10824;51.632;4.950;2024-02-21T01:29:15;3.60;;;2.03;;
21330;SDS011;10824;51.632;4.950;2024-02-21T01:31:42;4.50;;;2.53;;
21330;SDS011;10824;51.632;4.950;2024-02-21T01:34:09;9.65;;;2.95;;
21330;SDS011;10824;51.632;4.950;2024-02-21T01:36:37;6.03;;;2.00;;
21330;SDS011;10824;51.632;4.950;2024-02-21T01:39:04;6.70;;;2.42;;
21330;SDS011;10824;51.632;4.950;2024-02-21T01:41:31;9.63;;;1.95;;
21330;SDS011;10824;51.632;4.950;2024-02-21T01:43:59;4.63;;;1.90;;
21330;SDS011;10824;51.632;4.950;2024-02-21T01:46:26;7.47;;;2.35;;
21330;SDS011;10824;51.632;4.950;2024-02-21T01:48:55;5.50;;;1.85;;
21330;SDS011;10824;51.632;4.950;2024-02-21T01:51:24;4.72;;;2.08;;
21330;SDS011;10824;51.632;4.950;2024-02-21T01:53:51;6.20;;;2.00;;
21330;SDS011;10824;51.632;4.950;2024-02-21T01:56:22;7.22;;;2.20;;
21330;SDS011;10824;51.632;4.950;2024-02-21T01:58:50;3.90;;;2.40;;
21330;SDS011;10824;51.632;4.950;2024-02-21T02:01:18;6.97;;;1.90;;
21330;SDS011;10824;51.632;4.950;2024-02-21T02:03:47;3.75;;;2.15;;
21330;SDS011;10824;51.632;4.950;2024-02-21T02:06:16;5.32;;;2.10;;
21330;SDS011;10824;51.632;4.950;2024-02-21T02:08:43;5.32;;;1.80;;
21330;SDS011;10824;51.632;4.950;2024-02-21T02:11:13;3.15;;;1.63;;
21330;SDS011;10824;51.632;4.950;2024-02-21T02:13:41;7.00;;;2.47;;
21330;SDS011;10824;51.632;4.950;2024-02-21T02:16:08;4.30;;;2.30;;
21330;SDS011;10824;51.632;4.950;2024-02-21T02:18:35;21.70;;;2.58;;
21330;SDS011;10824;51.632;4.950;2024-02-21T02:21:07;3.38;;;2.13;;
21330;SDS011;10824;51.632;4.950;2024-02-21T02:23:46;5.60;;;3.03;;
21330;SDS011;10824;51.632;4.950;2024-02-21T02:26:13;2.95;;;1.88;;
21330;SDS011;10824;51.632;4.950;2024-02-21T02:28:41;5.50;;;2.50;;
21330;SDS011;10824;51.632;4.950;2024-02-21T02:31:08;4.53;;;2.08;;
21330;SDS011;10824;51.632;4.950;2024-02-21T02:33:35;4.43;;;1.77;;
21330;SDS011;10824;51.632;4.950;2024-02-21T02:36:02;5.00;;;2.42;;
21330;SDS011;10824;51.632;4.950;2024-02-21T02:38:29;3.50;;;2.03;;
21330;SDS011;10824;51.632;4.950;2024-02-21T02:40:56;4.45;;;1.58;;
21330;SDS011;10824;51.632;4.950;2024-02-21T02:43:23;7.30;;;2.08;;
21330;SDS011;10824;51.632;4.950;2024-02-21T02:45:51;5.93;;;2.05;;
21330;SDS011;10824;51.632;4.950;2024-02-21T02:48:18;4.93;;;2.35;;
21330;SDS011;10824;51.632;4.950;2024-02-21T02:50:46;7.57;;;2.65;;
21330;SDS011;10824;51.632;4.950;2024-02-21T02:53:13;3.28;;;1.60;;
21330;SDS011;10824;51.632;4.950;2024-02-21T02:55:40;4.65;;;1.77;;
21330;SDS011;10824;51.632;4.950;2024-02-21T02:58:07;9.93;;;2.20;;
21330;SDS011;10824;51.632;4.950;2024-02-21T03:00:38;5.00;;;1.48;;
21330;SDS011;10824;51.632;4.950;2024-02-21T03:03:06;8.68;;;2.35;;
21330;SDS011;10824;51.632;4.950;2024-02-21T03:05:35;5.50;;;1.52;;
21330;SDS011;10824;51.632;4.950;2024-02-21T03:08:02;4.88;;;2.25;;
21330;SDS011;10824;51.632;4.950;2024-02-21T03:10:33;5.07;;;1.70;;
21330;SDS011;10824;51.632;4.950;2024-02-21T03:13:00;3.53;;;2.10;;
21330;SDS011;10824;51.632;4.950;2024-02-21T03:15:28;5.78;;;1.90;;
21330;SDS011;10824;51.632;4.950;2024-02-21T03:17:55;2.92;;;1.55;;
21330;SDS011;10824;51.632;4.950;2024-02-21T03:20:22;3.85;;;1.75;;
21330;SDS011;10824;51.632;4.950;2024-02-21T03:22:49;7.13;;;2.10;;
21330;SDS011;10824;51.632;4.950;2024-02-21T03:25:16;2.78;;;1.70;;
21330;SDS011;10824;51.632;4.950;2024-02-21T03:27:44;1.98;;;1.35;;
21330;SDS011;10824;51.632;4.950;2024-02-21T03:30:11;6.63;;;2.17;;
21330;SDS011;10824;51.632;4.950;2024-02-21T03:32:39;4.75;;;1.45;;
21330;SDS011;10824;51.632;4.950;2024-02-21T03:35:06;4.20;;;2.50;;
21330;SDS011;10824;51.632;4.950;2024-02-21T03:37:34;4.72;;;2.40;;
21330;SDS011;10824;51.632;4.950;2024-02-21T03:40:01;6.18;;;2.28;;
21330;SDS011;10824;51.632;4.950;2024-02-21T03:42:28;5.20;;;1.98;;
21330;SDS011;10824;51.632;4.950;2024-02-21T03:44:58;6.07;;;2.50;;
21330;SDS011;10824;51.632;4.950;2024-02-21T03:47:25;3.00;;;1.83;;
21330;SDS011;10824;51.632;4.950;2024-02-21T03:49:52;9.18;;;3.88;;
21330;SDS011;10824;51.632;4.950;2024-02-21T03:52:20;3.38;;;1.88;;
21330;SDS011;10824;51.632;4.950;2024-02-21T03:54:47;6.72;;;2.78;;
21330;SDS011;10824;51.632;4.950;2024-02-21T03:57:14;4.28;;;2.17;;
21330;SDS011;10824;51.632;4.950;2024-02-21T03:59:41;6.53;;;2.33;;
21330;SDS011;10824;51.632;4.950;2024-02-21T04:02:10;5.30;;;2.40;;
21330;SDS011;10824;51.632;4.950;2024-02-21T04:04:37;5.20;;;2.80;;
21330;SDS011;10824;51.632;4.950;2024-02-21T04:07:10;8.30;;;2.58;;
21330;SDS011;10824;51.632;4.950;2024-02-21T04:09:37;6.07;;;2.92;;
21330;SDS011;10824;51.632;4.950;2024-02-21T04:12:04;7.72;;;3.20;;
21330;SDS011;10824;51.632;4.950;2024-02-21T04:14:32;7.97;;;3.30;;
21330;SDS011;10824;51.632;4.950;2024-02-21T04:16:59;7.50;;;3.10;;
21330;SDS011;10824;51.632;4.950;2024-02-21T04:19:26;6.90;;;2.97;;
21330;SDS011;10824;51.632;4.950;2024-02-21T04:21:53;5.63;;;2.15;;
21330;SDS011;10824;51.632;4.950;2024-02-21T04:24:20;15.00;;;3.90;;
21330;SDS011;10824;51.632;4.950;2024-02-21T04:26:47;14.25;;;3.88;;
21330;SDS011;10824;51.632;4.950;2024-02-21T04:29:15;7.63;;;3.20;;
21330;SDS011;10824;51.632;4.950;2024-02-21T04:31:42;8.10;;;2.63;;
21330;SDS011;10824;51.632;4.950;2024-02-21T04:34:09;9.40;;;3.45;;
21330;SDS011;10824;51.632;4.950;2024-02-21T04:36:36;7.40;;;3.10;;
21330;SDS011;10824;51.632;4.950;2024-02-21T04:39:03;7.25;;;2.97;;
21330;SDS011;10824;51.632;4.950;2024-02-21T04:41:30;7.43;;;2.88;;
21330;SDS011;10824;51.632;4.950;2024-02-21T04:43:58;8.73;;;2.97;;
21330;SDS011;10824;51.632;4.950;2024-02-21T04:46:25;9.15;;;3.35;;
21330;SDS011;10824;51.632;4.950;2024-02-21T04:48:52;9.30;;;2.83;;
21330;SDS011;10824;51.632;4.950;2024-02-21T04:51:19;10.13;;;3.80;;
21330;SDS011;10824;51.632;4.950;2024-02-21T04:53:47;8.77;;;4.20;;
21330;SDS011;10824;51.632;4.950;2024-02-21T04:56:14;8.55;;;3.05;;
21330;SDS011;10824;51.632;4.950;2024-02-21T04:58:41;5.13;;;2.83;;
21330;SDS011;10824;51.632;4.950;2024-02-21T05:01:08;14.73;;;3.90;;
21330;SDS011;10824;51.632;4.950;2024-02-21T05:03:35;9.52;;;4.00;;
21330;SDS011;10824;51.632;4.950;2024-02-21T05:06:02;11.18;;;3.83;;
21330;SDS011;10824;51.632;4.950;2024-02-21T05:08:30;10.35;;;4.25;;
21330;SDS011;10824;51.632;4.950;2024-02-21T05:10:57;11.25;;;5.32;;
21330;SDS011;10824;51.632;4.950;2024-02-21T05:13:24;8.55;;;3.30;;
21330;SDS011;10824;51.632;4.950;2024-02-21T05:15:52;5.82;;;2.78;;
21330;SDS011;10824;51.632;4.950;2024-02-21T05:18:19;6.80;;;3.08;;
21330;SDS011;10824;51.632;4.950;2024-02-21T05:20:47;5.55;;;3.22;;
21330;SDS011;10824;51.632;4.950;2024-02-21T05:23:14;12.23;;;3.97;;
21330;SDS011;10824;51.632;4.950;2024-02-21T05:25:41;8.73;;;3.88;;
21330;SDS011;10824;51.632;4.950;2024-02-21T05:28:08;12.45;;;3.47;;
21330;SDS011;10824;51.632;4.950;2024-02-21T05:30:35;8.90;;;3.03;;
21330;SDS011;10824;51.632;4.950;2024-02-21T05:33:05;7.28;;;4.57;;
21330;SDS011;10824;51.632;4.950;2024-02-21T05:35:34;6.60;;;3.25;;
21330;SDS011;10824;51.632;4.950;2024-02-21T05:38:01;6.30;;;3.22;;
21330;SDS011;10824;51.632;4.950;2024-02-21T05:43:00;9.10;;;3.17;;
21330;SDS011;10824;51.632;4.950;2024-02-21T05:45:28;8.10;;;3.42;;
21330;SDS011;10824;51.632;4.950;2024-02-21T05:47:55;8.88;;;3.88;;
21330;SDS011;10824;51.632;4.950;2024-02-21T05:50:24;8.55;;;3.30;;
21330;SDS011;10824;51.632;4.950;2024-02-21T05:52:51;9.90;;;3.10;;
21330;SDS011;10824;51.632;4.950;2024-02-21T05:55:19;8.00;;;2.55;;
21330;SDS011;10824;51.632;4.950;2024-02-21T05:57:46;6.85;;;3.47;;
21330;SDS011;10824;51.632;4.950;2024-02-21T06:00:13;15.68;;;4.10;;
21330;SDS011;10824;51.632;4.950;2024-02-21T06:02:41;9.65;;;3.05;;
21330;SDS011;10824;51.632;4.950;2024-02-21T06:05:08;5.85;;;2.50;;
21330;SDS011;10824;51.632;4.950;2024-02-21T06:07:35;5.18;;;2.42;;
21330;SDS011;10824;51.632;4.950;2024-02-21T06:10:03;13.00;;;3.83;;
21330;SDS011;10824;51.632;4.950;2024-02-21T06:12:30;6.10;;;2.85;;
21330;SDS011;10824;51.632;4.950;2024-02-21T06:14:57;7.78;;;3.45;;
21330;SDS011;10824;51.632;4.950;2024-02-21T06:17:24;4.45;;;2.35;;
21330;SDS011;10824;51.632;4.950;2024-02-21T06:19:51;7.55;;;2.92;;
21330;SDS011;10824;51.632;4.950;2024-02-21T06:22:19;6.50;;;2.88;;
21330;SDS011;10824;51.632;4.950;2024-02-21T06:24:46;11.82;;;4.45;;
21330;SDS011;10824;51.632;4.950;2024-02-21T06:27:13;25.45;;;5.35;;
21330;SDS011;10824;51.632;4.950;2024-02-21T06:29:42;16.90;;;3.40;;
21330;SDS011;10824;51.632;4.950;2024-02-21T06:32:09;8.75;;;3.13;;
21330;SDS011;10824;51.632;4.950;2024-02-21T06:34:39;10.00;;;3.80;;
21330;SDS011;10824;51.632;4.950;2024-02-21T06:37:06;11.38;;;3.10;;
21330;SDS011;10824;51.632;4.950;2024-02-21T06:39:34;8.23;;;3.97;;
21330;SDS011;10824;51.632;4.950;2024-02-21T06:42:03;8.38;;;2.80;;
21330;SDS011;10824;51.632;4.950;2024-02-21T06:44:31;6.88;;;3.95;;
21330;SDS011;10824;51.632;4.950;2024-02-21T06:47:01;5.18;;;3.13;;
21330;SDS011;10824;51.632;4.950;2024-02-21T06:49:28;7.57;;;3.78;;
21330;SDS011;10824;51.632;4.950;2024-02-21T06:51:55;10.10;;;4.13;;
21330;SDS011;10824;51.632;4.950;2024-02-21T06:54:22;7.95;;;4.10;;
21330;SDS011;10824;51.632;4.950;2024-02-21T06:56:50;6.63;;;3.35;;
21330;SDS011;10824;51.632;4.950;2024-02-21T06:59:17;9.05;;;3.78;;
21330;SDS011;10824;51.632;4.950;2024-02-21T07:01:45;8.13;;;3.67;;
21330;SDS011;10824;51.632;4.950;2024-02-21T07:04:16;8.70;;;5.25;;
21330;SDS011;10824;51.632;4.950;2024-02-21T07:06:43;5.50;;;3.28;;
21330;SDS011;10824;51.632;4.950;2024-02-21T07:09:11;11.43;;;4.13;;
21330;SDS011;10824;51.632;4.950;2024-02-21T07:11:38;5.97;;;3.58;;
21330;SDS011;10824;51.632;4.950;2024-02-21T07:14:05;10.95;;;4.07;;
21330;SDS011;10824;51.632;4.950;2024-02-21T07:16:32;7.13;;;3.20;;
21330;SDS011;10824;51.632;4.950;2024-02-21T07:19:00;10.20;;;3.83;;
21330;SDS011;10824;51.632;4.950;2024-02-21T07:21:27;13.52;;;3.80;;
21330;SDS011;10824;51.632;4.950;2024-02-21T07:23:54;8.63;;;3.03;;
21330;SDS011;10824;51.632;4.950;2024-02-21T07:26:21;9.90;;;3.40;;
21330;SDS011;10824;51.632;4.950;2024-02-21T07:28:48;10.55;;;3.40;;
21330;SDS011;10824;51.632;4.950;2024-02-21T07:31:16;10.57;;;3.75;;
21330;SDS011;10824;51.632;4.950;2024-02-21T07:33:43;7.68;;;2.42;;
21330;SDS011;10824;51.632;4.950;2024-02-21T07:36:11;11.75;;;5.15;;
21330;SDS011;10824;51.632;4.950;2024-02-21T07:38:38;6.82;;;4.65;;
21330;SDS011;10824;51.632;4.950;2024-02-21T07:41:05;6.82;;;2.85;;
21330;SDS011;10824;51.632;4.950;2024-02-21T07:43:33;12.63;;;3.05;;
21330;SDS011;10824;51.632;4.950;2024-02-21T07:46:00;21.55;;;4.18;;
21330;SDS011;10824;51.632;4.950;2024-02-21T07:48:27;9.27;;;3.08;;
21330;SDS011;10824;51.632;4.950;2024-02-21T07:50:57;8.48;;;3.53;;
21330;SDS011;10824;51.632;4.950;2024-02-21T07:53:24;5.50;;;3.08;;
21330;SDS011;10824;51.632;4.950;2024-02-21T07:55:51;8.60;;;4.00;;
21330;SDS011;10824;51.632;4.950;2024-02-21T07:58:18;9.48;;;3.60;;
21330;SDS011;10824;51.632;4.950;2024-02-21T08:00:45;6.50;;;3.60;;
21330;SDS011;10824;51.632;4.950;2024-02-21T08:03:12;6.68;;;2.85;;
21330;SDS011;10824;51.632;4.950;2024-02-21T08:05:41;11.70;;;3.47;;
21330;SDS011;10824;51.632;4.950;2024-02-21T08:08:09;6.05;;;3.60;;
21330;SDS011;10824;51.632;4.950;2024-02-21T08:10:36;10.38;;;4.05;;
21330;SDS011;10824;51.632;4.950;2024-02-21T08:13:03;9.98;;;3.53;;
21330;SDS011;10824;51.632;4.950;2024-02-21T08:15:30;6.25;;;3.28;;
21330;SDS011;10824;51.632;4.950;2024-02-21T08:17:57;8.07;;;3.83;;
21330;SDS011;10824;51.632;4.950;2024-02-21T08:20:28;8.38;;;3.58;;
21330;SDS011;10824;51.632;4.950;2024-02-21T08:22:55;10.10;;;4.38;;
21330;SDS011;10824;51.632;4.950;2024-02-21T08:25:22;9.95;;;3.85;;
21330;SDS011;10824;51.632;4.950;2024-02-21T08:27:49;8.15;;;3.20;;
21330;SDS011;10824;51.632;4.950;2024-02-21T08:30:18;15.20;;;6.30;;
21330;SDS011;10824;51.632;4.950;2024-02-21T08:32:45;10.02;;;5.20;;
21330;SDS011;10824;51.632;4.950;2024-02-21T08:35:12;15.68;;;6.68;;
21330;SDS011;10824;51.632;4.950;2024-02-21T08:37:39;8.93;;;4.10;;
21330;SDS011;10824;51.632;4.950;2024-02-21T08:40:07;10.85;;;3.53;;
21330;SDS011;10824;51.632;4.950;2024-02-21T08:42:36;6.10;;;2.90;;
21330;SDS011;10824;51.632;4.950;2024-02-21T08:45:05;7.38;;;3.05;;
21330;SDS011;10824;51.632;4.950;2024-02-21T08:47:32;8.52;;;3.20;;
21330;SDS011;10824;51.632;4.950;2024-02-21T08:49:59;5.32;;;2.50;;
21330;SDS011;10824;51.632;4.950;2024-02-21T08:52:40;5.47;;;2.60;;
21330;SDS011;10824;51.632;4.950;2024-02-21T08:55:09;3.15;;;2.50;;
21330;SDS011;10824;51.632;4.950;2024-02-21T08:57:36;6.15;;;2.60;;
21330;SDS011;10824;51.632;4.950;2024-02-21T09:00:04;7.10;;;2.75;;
21330;SDS011;10824;51.632;4.950;2024-02-21T09:02:37;7.95;;;2.75;;
21330;SDS011;10824;51.632;4.950;2024-02-21T09:05:06;9.68;;;2.63;;
21330;SDS011;10824;51.632;4.950;2024-02-21T09:07:34;5.00;;;2.42;;
21330;SDS011;10824;51.632;4.950;2024-02-21T09:10:02;6.15;;;3.90;;
21330;SDS011;10824;51.632;4.950;2024-02-21T09:12:29;8.98;;;2.50;;
21330;SDS011;10824;51.632;4.950;2024-02-21T09:14:56;7.47;;;2.50;;
21330;SDS011;10824;51.632;4.950;2024-02-21T09:17:23;2.70;;;1.80;;
21330;SDS011;10824;51.632;4.950;2024-02-21T09:19:51;6.63;;;2.67;;
21330;SDS011;10824;51.632;4.950;2024-02-21T09:22:19;4.95;;;2.35;;
21330;SDS011;10824;51.632;4.950;2024-02-21T09:24:46;8.45;;;2.13;;
21330;SDS011;10824;51.632;4.950;2024-02-21T09:27:14;5.88;;;2.30;;
21330;SDS011;10824;51.632;4.950;2024-02-21T09:29:41;3.13;;;1.83;;
21330;SDS011;10824;51.632;4.950;2024-02-21T09:32:08;4.38;;;1.95;;
21330;SDS011;10824;51.632;4.950;2024-02-21T09:34:35;3.63;;;2.20;;
21330;SDS011;10824;51.632;4.950;2024-02-21T09:37:02;3.63;;;1.83;;
21330;SDS011;10824;51.632;4.950;2024-02-21T09:39:30;5.22;;;2.50;;
21330;SDS011;10824;51.632;4.950;2024-02-21T09:41:59;5.22;;;2.03;;
21330;SDS011;10824;51.632;4.950;2024-02-21T09:44:32;12.63;;;3.67;;
21330;SDS011;10824;51.632;4.950;2024-02-21T09:47:09;4.68;;;1.63;;
21330;SDS011;10824;51.632;4.950;2024-02-21T09:49:40;7.30;;;3.10;;
21330;SDS011;10824;51.632;4.950;2024-02-21T09:52:07;5.85;;;1.95;;
21330;SDS011;10824;51.632;4.950;2024-02-21T09:54:36;4.47;;;2.20;;
21330;SDS011;10824;51.632;4.950;2024-02-21T09:57:04;3.63;;;2.70;;
21330;SDS011;10824;51.632;4.950;2024-02-21T09:59:32;4.60;;;2.53;;
21330;SDS011;10824;51.632;4.950;2024-02-21T10:02:00;6.35;;;2.40;;
21330;SDS011;10824;51.632;4.950;2024-02-21T10:04:29;3.08;;;1.92;;
21330;SDS011;10824;51.632;4.950;2024-02-21T10:06:57;5.68;;;2.13;;
21330;SDS011;10824;51.632;4.950;2024-02-21T10:09:27;4.35;;;2.40;;
21330;SDS011;10824;51.632;4.950;2024-02-21T10:11:56;5.93;;;2.78;;
21330;SDS011;10824;51.632;4.950;2024-02-21T10:14:38;4.80;;;2.72;;
21330;SDS011;10824;51.632;4.950;2024-02-21T10:17:05;6.85;;;2.90;;
21330;SDS011;10824;51.632;4.950;2024-02-21T10:19:37;4.32;;;2.35;;
21330;SDS011;10824;51.632;4.950;2024-02-21T10:22:07;8.52;;;3.17;;
21330;SDS011;10824;51.632;4.950;2024-02-21T10:24:35;7.10;;;2.38;;
21330;SDS011;10824;51.632;4.950;2024-02-21T10:27:10;4.72;;;2.83;;
21330;SDS011;10824;51.632;4.950;2024-02-21T10:29:38;3.50;;;2.08;;
21330;SDS011;10824;51.632;4.950;2024-02-21T10:34:39;5.45;;;2.05;;
21330;SDS011;10824;51.632;4.950;2024-02-21T10:37:08;4.90;;;2.30;;
21330;SDS011;10824;51.632;4.950;2024-02-21T10:39:37;8.80;;;2.67;;
21330;SDS011;10824;51.632;4.950;2024-02-21T10:42:05;4.15;;;2.00;;
21330;SDS011;10824;51.632;4.950;2024-02-21T10:44:36;7.50;;;3.35;;
21330;SDS011;10824;51.632;4.950;2024-02-21T10:49:38;4.73;;;2.20;;
21330;SDS011;10824;51.632;4.950;2024-02-21T10:52:25;4.85;;;2.67;;
21330;SDS011;10824;51.632;4.950;2024-02-21T10:57:53;8.65;;;3.83;;
21330;SDS011;10824;51.632;4.950;2024-02-21T11:00:21;10.80;;;3.25;;
21330;SDS011;10824;51.632;4.950;2024-02-21T11:02:51;7.20;;;3.95;;
21330;SDS011;10824;51.632;4.950;2024-02-21T11:05:19;15.77;;;3.95;;
21330;SDS011;10824;51.632;4.950;2024-02-21T11:07:46;6.18;;;2.90;;
21330;SDS011;10824;51.632;4.950;2024-02-21T11:10:20;6.05;;;2.75;;
21330;SDS011;10824;51.632;4.950;2024-02-21T11:13:12;3.60;;;1.73;;
21330;SDS011;10824;51.632;4.950;2024-02-21T11:15:40;5.72;;;2.33;;
21330;SDS011;10824;51.632;4.950;2024-02-21T11:18:06;3.85;;;2.25;;
21330;SDS011;10824;51.632;4.950;2024-02-21T11:20:37;3.85;;;1.63;;
21330;SDS011;10824;51.632;4.950;2024-02-21T11:23:05;4.07;;;1.67;;
21330;SDS011;10824;51.632;4.950;2024-02-21T11:25:32;5.28;;;2.38;;
21330;SDS011;10824;51.632;4.950;2024-02-21T11:28:02;4.07;;;1.58;;
21330;SDS011;10824;51.632;4.950;2024-02-21T11:30:30;3.63;;;1.80;;
21330;SDS011;10824;51.632;4.950;2024-02-21T11:33:01;4.75;;;1.88;;
21330;SDS011;10824;51.632;4.950;2024-02-21T11:35:34;3.58;;;1.70;;
21330;SDS011;10824;51.632;4.950;2024-02-21T11:38:11;3.38;;;1.90;;
21330;SDS011;10824;51.632;4.950;2024-02-21T11:40:44;3.22;;;1.60;;
21330;SDS011;10824;51.632;4.950;2024-02-21T11:43:12;3.25;;;1.63;;
21330;SDS011;10824;51.632;4.950;2024-02-21T11:45:39;2.60;;;1.80;;
21330;SDS011;10824;51.632;4.950;2024-02-21T11:48:06;6.57;;;1.70;;
21330;SDS011;10824;51.632;4.950;2024-02-21T11:50:34;2.05;;;1.40;;
21330;SDS011;10824;51.632;4.950;2024-02-21T11:53:03;3.33;;;1.65;;
21330;SDS011;10824;51.632;4.950;2024-02-21T11:55:30;4.00;;;1.33;;
21330;SDS011;10824;51.632;4.950;2024-02-21T11:57:58;2.03;;;1.33;;
21330;SDS011;10824;51.632;4.950;2024-02-21T12:00:25;3.75;;;2.00;;
21330;SDS011;10824;51.632;4.950;2024-02-21T12:02:52;5.20;;;1.98;;
21330;SDS011;10824;51.632;4.950;2024-02-21T12:05:22;3.33;;;1.73;;
21330;SDS011;10824;51.632;4.950;2024-02-21T12:07:49;4.32;;;2.03;;
21330;SDS011;10824;51.632;4.950;2024-02-21T12:10:16;2.70;;;1.65;;
21330;SDS011;10824;51.632;4.950;2024-02-21T12:12:43;4.72;;;2.05;;
21330;SDS011;10824;51.632;4.950;2024-02-21T12:15:11;4.00;;;1.55;;
21330;SDS011;10824;51.632;4.950;2024-02-21T12:17:39;4.10;;;1.60;;
21330;SDS011;10824;51.632;4.950;2024-02-21T12:20:08;3.08;;;1.60;;
21330;SDS011;10824;51.632;4.950;2024-02-21T12:22:37;1.85;;;1.45;;
21330;SDS011;10824;51.632;4.950;2024-02-21T12:25:15;3.97;;;1.65;;
21330;SDS011;10824;51.632;4.950;2024-02-21T12:27:45;3.40;;;1.73;;
21330;SDS011;10824;51.632;4.950;2024-02-21T12:30:13;3.35;;;1.23;;
21330;SDS011;10824;51.632;4.950;2024-02-21T12:32:40;4.30;;;1.63;;
21330;SDS011;10824;51.632;4.950;2024-02-21T12:35:08;5.35;;;1.85;;
21330;SDS011;10824;51.632;4.950;2024-02-21T12:37:35;2.80;;;1.70;;
21330;SDS011;10824;51.632;4.950;2024-02-21T12:40:06;3.03;;;2.20;;
21330;SDS011;10824;51.632;4.950;2024-02-21T12:42:34;5.55;;;2.20;;
21330;SDS011;10824;51.632;4.950;2024-02-21T12:45:02;5.03;;;1.73;;
21330;SDS011;10824;51.632;4.950;2024-02-21T12:47:30;5.15;;;2.08;;
21330;SDS011;10824;51.632;4.950;2024-02-21T12:49:57;2.50;;;2.30;;
21330;SDS011;10824;51.632;4.950;2024-02-21T12:52:25;3.20;;;1.40;;
21330;SDS011;10824;51.632;4.950;2024-02-21T12:54:52;4.80;;;2.55;;
21330;SDS011;10824;51.632;4.950;2024-02-21T12:57:23;2.97;;;1.57;;
21330;SDS011;10824;51.632;4.950;2024-02-21T12:59:53;2.95;;;1.50;;
21330;SDS011;10824;51.632;4.950;2024-02-21T13:02:20;1.90;;;1.27;;
21330;SDS011;10824;51.632;4.950;2024-02-21T13:04:48;1.83;;;1.15;;
21330;SDS011;10824;51.632;4.950;2024-02-21T13:07:15;7.20;;;1.70;;
21330;SDS011;10824;51.632;4.950;2024-02-21T13:09:42;5.60;;;1.65;;
21330;SDS011;10824;51.632;4.950;2024-02-21T13:12:09;5.97;;;1.60;;
21330;SDS011;10824;51.632;4.950;2024-02-21T13:14:37;13.73;;;1.70;;
21330;SDS011;10824;51.632;4.950;2024-02-21T13:17:05;5.88;;;1.60;;
21330;SDS011;10824;51.632;4.950;2024-02-21T13:19:33;4.45;;;1.30;;
21330;SDS011;10824;51.632;4.950;2024-02-21T13:22:01;4.63;;;1.65;;
21330;SDS011;10824;51.632;4.950;2024-02-21T13:24:29;5.45;;;1.30;;
21330;SDS011;10824;51.632;4.950;2024-02-21T13:26:57;2.95;;;1.42;;
21330;SDS011;10824;51.632;4.950;2024-02-21T13:29:24;5.88;;;1.52;;
21330;SDS011;10824;51.632;4.950;2024-02-21T13:31:51;2.60;;;1.55;;
21330;SDS011;10824;51.632;4.950;2024-02-21T13:34:18;4.13;;;1.70;;
21330;SDS011;10824;51.632;4.950;2024-02-21T13:36:45;5.90;;;2.08;;
21330;SDS011;10824;51.632;4.950;2024-02-21T13:39:12;4.28;;;1.70;;
21330;SDS011;10824;51.632;4.950;2024-02-21T13:41:42;5.93;;;1.95;;
21330;SDS011;10824;51.632;4.950;2024-02-21T13:44:10;3.25;;;1.42;;
21330;SDS011;10824;51.632;4.950;2024-02-21T13:46:39;4.82;;;1.92;;
21330;SDS011;10824;51.632;4.950;2024-02-21T13:49:06;17.30;;;3.13;;
21330;SDS011;10824;51.632;4.950;2024-02-21T13:51:34;3.47;;;1.55;;
21330;SDS011;10824;51.632;4.950;2024-02-21T13:54:04;1.58;;;1.48;;
21330;SDS011;10824;51.632;4.950;2024-02-21T13:56:32;2.72;;;1.48;;
21330;SDS011;10824;51.632;4.950;2024-02-21T13:58:59;2.45;;;1.67;;
21330;SDS011;10824;51.632;4.950;2024-02-21T14:01:29;6.38;;;1.83;;
21330;SDS011;10824;51.632;4.950;2024-02-21T14:03:59;3.40;;;1.85;;
21330;SDS011;10824;51.632;4.950;2024-02-21T14:06:26;4.13;;;1.80;;
21330;SDS011;10824;51.632;4.950;2024-02-21T14:08:53;3.13;;;1.30;;
21330;SDS011;10824;51.632;4.950;2024-02-21T14:11:20;7.38;;;2.25;;
21330;SDS011;10824;51.632;4.950;2024-02-21T14:13:48;3.55;;;1.80;;
21330;SDS011;10824;51.632;4.950;2024-02-21T14:16:15;2.03;;;1.52;;
21330;SDS011;10824;51.632;4.950;2024-02-21T14:18:42;3.25;;;1.73;;
21330;SDS011;10824;51.632;4.950;2024-02-21T14:21:10;1.98;;;1.55;;
21330;SDS011;10824;51.632;4.950;2024-02-21T14:23:38;6.75;;;1.65;;
21330;SDS011;10824;51.632;4.950;2024-02-21T14:26:05;19.67;;;2.70;;
21330;SDS011;10824;51.632;4.950;2024-02-21T14:28:33;4.95;;;2.53;;
21330;SDS011;10824;51.632;4.950;2024-02-21T14:31:00;9.25;;;2.75;;
21330;SDS011;10824;51.632;4.950;2024-02-21T14:33:27;3.92;;;1.98;;
21330;SDS011;10824;51.632;4.950;2024-02-21T14:35:54;2.30;;;1.27;;
21330;SDS011;10824;51.632;4.950;2024-02-21T14:38:21;4.90;;;2.17;;
21330;SDS011;10824;51.632;4.950;2024-02-21T14:40:49;4.53;;;1.70;;
21330;SDS011;10824;51.632;4.950;2024-02-21T14:43:16;2.65;;;1.38;;
21330;SDS011;10824;51.632;4.950;2024-02-21T14:45:44;3.30;;;1.73;;
21330;SDS011;10824;51.632;4.950;2024-02-21T14:48:14;5.40;;;2.67;;
21330;SDS011;10824;51.632;4.950;2024-02-21T14:50:41;5.20;;;2.40;;
21330;SDS011;10824;51.632;4.950;2024-02-21T14:53:08;1.50;;;1.40;;
21330;SDS011;10824;51.632;4.950;2024-02-21T14:55:36;4.95;;;1.70;;
21330;SDS011;10824;51.632;4.950;2024-02-21T14:58:07;2.10;;;1.30;;
21330;SDS011;10824;51.632;4.950;2024-02-21T15:00:34;1.45;;;1.30;;